Terminal Aerodrome Forecast
Issued by NWS

Home | Current Version | Previous Version | Text Only | Print | Product List | Glossary On
Versions: 1 2 3 4 5 6 7 8 9 10 11 12 13 14 15 16 17
353
FTUS42 KTBW 271354 AAA
TAFPIE
TAF AMD
KPIE 271354Z 2714/2812 10015G20KT 6SM SHRA BR BKN015 OVC040
      TEMPO 2714/2716 4SM SHRA OVC008
     FM271700 13019G26KT P6SM VCSH BKN030 OVC080
     FM272100 14021G30KT P6SM VCSH BKN040 BKN070
     FM280600 17015G20KT P6SM VCSH BKN050 OVC100=

USA.gov is the U.S. government's official web portal to all federal, state and local government web resources and services.